createdAt,value
2023-04-15T00:00:12.311Z,92408.00
2023-04-15T00:01:09.027Z,92404.23
2023-04-15T00:01:43.172Z,92405.34
2023-04-15T00:02:19.008Z,92404.06
2023-04-15T00:02:53.699Z,92403.55
2023-04-15T00:03:28.786Z,92405.48
2023-04-15T00:04:02.917Z,92408.16
2023-04-15T00:04:37.740Z,92406.84
2023-04-15T00:05:12.940Z,92401.70
2023-04-15T00:05:46.426Z,92407.33
2023-04-15T00:06:20.851Z,92408.17
2023-04-15T00:06:55.018Z,92407.26
2023-04-15T00:07:30.208Z,92406.34
2023-04-15T00:08:03.783Z,92408.61
2023-04-15T00:08:39.286Z,92406.61
2023-04-15T00:09:14.214Z,92410.23
2023-04-15T00:09:47.514Z,92410.51
2023-04-15T00:10:20.840Z,92407.31
2023-04-15T00:10:54.193Z,92409.19
2023-04-15T00:11:30.388Z,92410.96
2023-04-15T00:12:07.617Z,92411.63
2023-04-15T00:12:41.553Z,92405.48
2023-04-15T00:13:15.594Z,92412.63
2023-04-15T00:13:49.651Z,92416.62
2023-04-15T00:14:22.987Z,92411.41
2023-04-15T00:14:57.346Z,92412.48
2023-04-15T00:15:30.734Z,92410.42
2023-04-15T00:16:04.221Z,92413.14
2023-04-15T00:16:37.529Z,92412.98
2023-04-15T00:17:10.929Z,92408.38
2023-04-15T00:17:44.495Z,92409.66
2023-04-15T00:18:17.972Z,92412.07
2023-04-15T00:18:52.024Z,92409.48
2023-04-15T00:19:25.626Z,92412.61
2023-04-15T00:20:00.136Z,92411.34
2023-04-15T00:20:34.381Z,92412.38
2023-04-15T00:21:08.202Z,92410.77
2023-04-15T00:21:42.186Z,92407.27
2023-04-15T00:22:16.351Z,92407.73
2023-04-15T00:22:49.841Z,92408.90
2023-04-15T00:23:23.736Z,92405.34
2023-04-15T00:23:57.707Z,92405.40
2023-04-15T00:24:33.167Z,92402.62
2023-04-15T00:25:07.029Z,92404.41
2023-04-15T00:25:41.105Z,92403.29
2023-04-15T00:26:17.622Z,92403.54
2023-04-15T00:26:52.490Z,92400.45
2023-04-15T00:27:26.475Z,92400.59
2023-04-15T00:28:00.184Z,92401.73
2023-04-15T00:28:33.947Z,92399.30
2023-04-15T00:29:07.411Z,92399.14
2023-04-15T00:29:42.866Z,92400.63
2023-04-15T00:30:16.370Z,92398.27
2023-04-15T00:30:53.368Z,92396.38
2023-04-15T00:31:27.644Z,92398.86
2023-04-15T00:32:01.653Z,92399.21
2023-04-15T00:32:35.923Z,92401.03
2023-04-15T00:33:10.040Z,92399.98
2023-04-15T00:33:44.083Z,92396.38
2023-04-15T00:34:18.074Z,92396.19
2023-04-15T00:34:52.169Z,92393.96
2023-04-15T00:35:28.496Z,92397.98
2023-04-15T00:36:03.113Z,92395.61
2023-04-15T00:36:37.220Z,92399.13
2023-04-15T00:37:11.178Z,92389.14
2023-04-15T00:37:46.195Z,92399.67
2023-04-15T00:38:20.376Z,92388.87
2023-04-15T00:38:54.246Z,92398.67
2023-04-15T00:39:28.428Z,92398.20
2023-04-15T00:40:01.993Z,92394.45
2023-04-15T00:40:36.909Z,92394.06
2023-04-15T00:41:14.248Z,92395.17
2023-04-15T00:41:48.583Z,92392.73
2023-04-15T00:42:22.910Z,92392.26
2023-04-15T00:42:56.465Z,92394.52
2023-04-15T00:43:33.012Z,92396.40
2023-04-15T00:44:07.479Z,92395.16
2023-04-15T00:44:41.298Z,92390.17
2023-04-15T00:45:16.859Z,92393.20
2023-04-15T00:45:53.017Z,92391.48
2023-04-15T00:46:29.957Z,92392.21
2023-04-15T00:47:06.029Z,92390.31
2023-04-15T00:53:54.037Z,92387.13
2023-04-15T00:54:27.831Z,92381.77
2023-04-15T00:55:04.994Z,92376.92
2023-04-15T00:55:39.013Z,92385.62
2023-04-15T00:56:12.855Z,92374.79
2023-04-15T00:56:47.002Z,92386.44
2023-04-15T00:57:27.963Z,92387.77
2023-04-15T00:58:18.230Z,92381.23
2023-04-15T00:59:00.043Z,92371.05
2023-04-15T00:59:38.041Z,92375.05
2023-04-15T01:00:12.701Z,92379.17
2023-04-15T01:00:47.236Z,92377.95
2023-04-15T01:01:26.693Z,92373.69
2023-04-15T01:02:00.882Z,92377.54
2023-04-15T01:02:36.116Z,92373.21
2023-04-15T01:03:10.343Z,92367.38
2023-04-15T01:03:44.306Z,92374.43
2023-04-15T01:04:18.395Z,92365.89
2023-04-15T01:04:52.814Z,92368.05
2023-04-15T01:05:27.319Z,92365.44
2023-04-15T01:06:04.378Z,92362.30
2023-04-15T01:06:38.143Z,92363.51
2023-04-15T01:07:11.884Z,92363.40
2023-04-15T01:07:45.559Z,92363.34
2023-04-15T01:08:19.318Z,92359.62
2023-04-15T01:08:53.477Z,92359.93
2023-04-15T01:09:27.450Z,92349.52
2023-04-15T01:10:01.245Z,92360.08
2023-04-15T01:10:34.947Z,92360.69
2023-04-15T01:11:09.975Z,92357.83
2023-04-15T01:11:45.002Z,92359.98
2023-04-15T01:12:19.802Z,92356.04
2023-04-15T01:12:53.552Z,92357.63
2023-04-15T01:13:27.603Z,92355.79
2023-04-15T01:14:02.085Z,92359.42
2023-04-15T01:14:36.125Z,92353.97
2023-04-15T01:15:11.597Z,92357.27
2023-04-15T01:15:45.735Z,92356.30
2023-04-15T01:16:21.038Z,92356.54
2023-04-15T01:16:54.957Z,92361.87
2023-04-15T01:17:28.789Z,92360.23
2023-04-15T01:18:03.829Z,92361.98
2023-04-15T01:18:39.068Z,92356.63
2023-04-15T01:19:17.747Z,92362.80
2023-04-15T01:19:52.651Z,92359.32
2023-04-15T01:20:27.968Z,92353.91
2023-04-15T01:21:04.139Z,92347.86
2023-04-15T01:21:41.296Z,92355.20
2023-04-15T01:22:15.491Z,92356.87
2023-04-15T01:22:49.952Z,92361.00
2023-04-15T01:23:24.256Z,92352.05
2023-04-15T01:23:59.275Z,92350.29
2023-04-15T01:24:34.364Z,92355.11
2023-04-15T01:25:13.546Z,92355.71
2023-04-15T01:25:50.449Z,92353.50
2023-04-15T01:26:26.404Z,92353.08
2023-04-15T01:27:16.434Z,92351.64
2023-04-15T01:27:57.659Z,92347.09
2023-04-15T01:28:46.242Z,92347.63
2023-04-15T01:29:30.162Z,92343.51
2023-04-15T01:30:08.366Z,92351.90
2023-04-15T01:31:18.935Z,92354.63
2023-04-15T01:31:53.433Z,92325.24
2023-04-15T01:32:27.519Z,92335.87
2023-04-15T01:33:01.579Z,92345.78
2023-04-15T01:33:35.484Z,92348.17
2023-04-15T01:34:09.165Z,92345.48
2023-04-15T01:34:44.611Z,92343.80
2023-04-15T01:35:18.589Z,92341.65
2023-04-15T01:35:52.697Z,92340.27
2023-04-15T01:36:55.860Z,92347.41
2023-04-15T01:37:30.010Z,92341.26
2023-04-15T01:38:10.626Z,92344.50
2023-04-15T01:38:44.606Z,92347.98
2023-04-15T01:39:18.228Z,92346.27
2023-04-15T01:39:51.854Z,92353.39
2023-04-15T01:40:26.005Z,92332.48
2023-04-15T01:40:59.547Z,92349.73
2023-04-15T01:41:32.984Z,92350.19
2023-04-15T01:42:07.134Z,92346.64
2023-04-15T01:42:40.802Z,92346.50
2023-04-15T01:43:15.653Z,92356.58
2023-04-15T01:43:49.268Z,92352.69
2023-04-15T01:44:22.927Z,92354.46
2023-04-15T01:44:56.577Z,92354.17
2023-04-15T01:45:30.349Z,92352.90
2023-04-15T01:46:03.801Z,92345.72
2023-04-15T01:46:38.655Z,92348.26
2023-04-15T01:47:12.845Z,92344.92
2023-04-15T01:47:46.343Z,92355.27
2023-04-15T01:48:20.284Z,92346.10
2023-04-15T01:48:53.702Z,92347.94
2023-04-15T01:50:44.164Z,92348.09
2023-04-15T01:51:17.719Z,92346.70
2023-04-15T01:51:51.277Z,92350.75
2023-04-15T01:52:25.012Z,92354.13
2023-04-15T01:52:58.495Z,92354.52
2023-04-15T01:53:32.011Z,92351.56
2023-04-15T01:54:05.531Z,92355.05
2023-04-15T01:54:38.908Z,92351.05
2023-04-15T01:55:12.765Z,92352.45
2023-04-15T01:55:46.388Z,92349.45
2023-04-15T01:56:22.427Z,92350.40
2023-04-15T01:56:56.907Z,92344.20
2023-04-15T01:57:31.533Z,92351.31
2023-04-15T01:58:07.861Z,92348.69
2023-04-15T01:58:41.532Z,92344.75
2023-04-15T01:59:18.115Z,92349.95
2023-04-15T01:59:51.888Z,92335.15
2023-04-15T02:00:25.369Z,92340.32
2023-04-15T02:00:58.940Z,92339.84
2023-04-15T02:01:32.515Z,92339.70
2023-04-15T02:02:06.137Z,92338.55
2023-04-15T02:02:39.855Z,92337.71
2023-04-15T02:03:13.857Z,92335.61
2023-04-15T02:03:48.179Z,92331.83
2023-04-15T02:04:22.059Z,92337.52
2023-04-15T02:04:55.979Z,92325.11
2023-04-15T02:05:29.406Z,92330.30
2023-04-15T02:06:02.867Z,92326.00
2023-04-15T02:06:36.596Z,92329.21
2023-04-15T02:07:10.165Z,92332.38
2023-04-15T02:07:46.632Z,92334.28
2023-04-15T02:08:20.045Z,92334.33
2023-04-15T02:08:53.509Z,92334.16
2023-04-15T02:09:27.069Z,92334.38
2023-04-15T02:10:00.739Z,92332.75
2023-04-15T02:10:34.511Z,92324.96
2023-04-15T02:11:08.609Z,92322.17
2023-04-15T02:11:42.058Z,92328.27
2023-04-15T02:12:15.522Z,92332.79
2023-04-15T02:12:49.014Z,92323.73
2023-04-15T02:13:22.656Z,92331.69
2023-04-15T02:13:57.257Z,92332.23
2023-04-15T02:14:32.545Z,92325.31
2023-04-15T02:15:07.368Z,92332.05
2023-04-15T02:15:41.338Z,92328.41
2023-04-15T02:16:19.194Z,92333.44
2023-04-15T02:16:52.822Z,92334.11
2023-04-15T02:17:26.483Z,92336.34
2023-04-15T02:18:01.165Z,92334.68
2023-04-15T02:18:34.745Z,92330.59
2023-04-15T02:19:09.648Z,92340.16
2023-04-15T02:19:44.308Z,92341.27
2023-04-15T02:20:19.256Z,92333.55
2023-04-15T02:20:53.102Z,92337.83
2023-04-15T02:21:30.055Z,92340.27
2023-04-15T02:22:03.680Z,92341.65
2023-04-15T02:22:37.573Z,92341.91
2023-04-15T02:23:11.970Z,92350.93
2023-04-15T02:23:47.190Z,92348.09
2023-04-15T02:24:21.394Z,92339.45
2023-04-15T02:24:54.911Z,92343.77
2023-04-15T02:25:28.440Z,92345.70
2023-04-15T02:26:01.821Z,92347.77
2023-04-15T02:26:38.241Z,92342.55
2023-04-15T02:27:12.084Z,92343.75
2023-04-15T02:27:46.070Z,92343.20
2023-04-15T02:28:19.584Z,92343.52
2023-04-15T02:28:53.019Z,92340.77
2023-04-15T02:29:26.523Z,92340.95
2023-04-15T02:30:00.074Z,92337.48
2023-04-15T02:30:34.244Z,92342.91
2023-04-15T02:31:10.537Z,92340.14
2023-04-15T02:31:46.075Z,92344.02
2023-04-15T02:32:20.492Z,92342.89
2023-04-15T02:32:54.085Z,92343.84
2023-04-15T02:33:28.680Z,92335.49
2023-04-15T02:34:04.753Z,92345.15
2023-04-15T02:34:43.004Z,92344.58
2023-04-15T02:35:19.487Z,92349.76
2023-04-15T02:35:53.520Z,92344.95
2023-04-15T02:36:27.399Z,92343.38
2023-04-15T02:37:01.963Z,92346.75
2023-04-15T02:37:44.031Z,92344.98
2023-04-15T02:38:18.229Z,92347.26
2023-04-15T02:38:51.734Z,92347.77
2023-04-15T02:39:30.225Z,92332.40
2023-04-15T02:40:05.309Z,92342.55
2023-04-15T02:40:38.943Z,92345.65
2023-04-15T02:41:13.974Z,92347.27
2023-04-15T02:41:52.065Z,92348.00
2023-04-15T02:42:28.008Z,92351.05
2023-04-15T02:43:01.986Z,92349.20
2023-04-15T02:43:36.368Z,92349.02
2023-04-15T02:44:11.430Z,92354.09
2023-04-15T02:44:48.103Z,92340.36
2023-04-15T02:45:24.434Z,92340.46
2023-04-15T02:45:58.225Z,92348.56
2023-04-15T02:46:33.245Z,92341.70
2023-04-15T02:47:12.241Z,92348.63
2023-04-15T02:47:47.792Z,92348.30
2023-04-15T02:48:22.261Z,92336.42
2023-04-15T02:48:56.112Z,92348.36
2023-04-15T02:49:31.535Z,92346.01
2023-04-15T02:50:06.279Z,92345.23
2023-04-15T02:50:41.037Z,92348.10
2023-04-15T02:51:20.146Z,92346.30
2023-04-15T02:51:54.240Z,92344.50
2023-04-15T02:52:28.170Z,92339.73
2023-04-15T02:53:03.012Z,92340.14
2023-04-15T02:53:36.776Z,92345.80
2023-04-15T02:54:10.792Z,92348.93
2023-04-15T02:54:44.369Z,92343.08
2023-04-15T02:55:18.359Z,92344.66
2023-04-15T02:55:51.929Z,92344.36
2023-04-15T02:56:25.917Z,92344.85
2023-04-15T02:56:59.510Z,92346.09
2023-04-15T02:57:33.016Z,92344.94
2023-04-15T02:58:10.667Z,92344.81
2023-04-15T02:58:45.978Z,92347.52
2023-04-15T02:59:19.598Z,92348.95
2023-04-15T02:59:53.005Z,92352.89
2023-04-15T03:00:27.597Z,92352.30
2023-04-15T03:01:01.096Z,92354.23
2023-04-15T03:01:48.085Z,92347.45
2023-04-15T03:02:21.948Z,92341.40
2023-04-15T03:03:06.974Z,92352.14
2023-04-15T03:03:41.015Z,92350.20
2023-04-15T03:04:14.941Z,92351.58
2023-04-15T03:04:49.151Z,92347.23
2023-04-15T03:05:25.989Z,92350.30
2023-04-15T03:05:59.510Z,92340.84
2023-04-15T03:06:40.995Z,92348.11
2023-04-15T03:07:15.027Z,92336.12
2023-04-15T03:07:48.655Z,92344.33
2023-04-15T03:08:22.410Z,92344.74
2023-04-15T03:08:57.310Z,92345.69
2023-04-15T03:09:30.915Z,92341.20
2023-04-15T03:10:05.967Z,92344.45
2023-04-15T03:10:39.528Z,92345.13
2023-04-15T03:11:15.759Z,92346.66
2023-04-15T03:11:49.488Z,92348.45
2023-04-15T03:12:23.307Z,92346.49
2023-04-15T03:12:57.491Z,92343.80
2023-04-15T03:13:31.587Z,92347.91
2023-04-15T03:14:06.309Z,92349.73
2023-04-15T03:14:41.911Z,92342.92
2023-04-15T03:15:15.843Z,92349.66
2023-04-15T03:15:52.320Z,92349.37
2023-04-15T03:16:26.700Z,92350.91
2023-04-15T03:17:00.175Z,92341.58
2023-04-15T03:17:34.474Z,92352.19
2023-04-15T03:18:08.944Z,92352.23
2023-04-15T03:18:42.732Z,92353.00
2023-04-15T03:19:16.889Z,92353.15
2023-04-15T03:19:51.295Z,92355.77
2023-04-15T03:20:28.468Z,92351.61
2023-04-15T03:21:14.811Z,92353.86
2023-04-15T03:21:48.546Z,92346.35
2023-04-15T03:22:22.088Z,92352.31
2023-04-15T03:22:56.227Z,92355.42
2023-04-15T03:23:31.739Z,92354.42
2023-04-15T03:24:05.455Z,92356.12
2023-04-15T03:24:38.965Z,92356.60
2023-04-15T03:25:12.625Z,92350.38
2023-04-15T03:25:46.508Z,92355.00
2023-04-15T03:26:29.068Z,92346.27
2023-04-15T03:27:06.546Z,92358.49
2023-04-15T03:27:42.169Z,92356.89
2023-04-15T03:28:16.223Z,92357.09
2023-04-15T03:28:50.323Z,92342.09
2023-04-15T03:29:25.088Z,92359.84
2023-04-15T03:29:59.260Z,92360.60
2023-04-15T03:30:33.063Z,92358.45
2023-04-15T03:31:06.731Z,92361.83
2023-04-15T03:31:40.462Z,92363.15
2023-04-15T03:32:15.508Z,92361.12
2023-04-15T03:32:49.229Z,92354.56
2023-04-15T03:33:23.037Z,92361.17
2023-04-15T03:33:56.746Z,92358.84
2023-04-15T03:34:30.506Z,92359.84
2023-04-15T03:35:04.631Z,92342.16
2023-04-15T03:35:38.625Z,92357.61
2023-04-15T03:36:14.528Z,92360.19
2023-04-15T03:36:48.305Z,92354.54
2023-04-15T03:37:21.988Z,92354.63
2023-04-15T03:37:56.252Z,92355.84
2023-04-15T03:38:30.189Z,92350.25
2023-04-15T03:39:04.515Z,92354.96
2023-04-15T03:39:38.117Z,92356.18
2023-04-15T03:40:12.355Z,92357.23
2023-04-15T03:40:47.418Z,92356.41
2023-04-15T03:41:21.060Z,92353.34
2023-04-15T03:41:54.558Z,92356.08
2023-04-15T03:42:28.160Z,92353.34
2023-04-15T03:43:02.038Z,92354.70
2023-04-15T03:43:36.102Z,92352.76
2023-04-15T03:44:09.813Z,92347.67
2023-04-15T03:44:43.634Z,92360.19
2023-04-15T03:45:17.463Z,92352.20
2023-04-15T03:45:51.179Z,92355.95
2023-04-15T03:46:24.722Z,92340.97
2023-04-15T03:46:58.333Z,92353.48
2023-04-15T03:47:32.406Z,92354.31
2023-04-15T03:48:16.589Z,92350.16
2023-04-15T03:48:51.398Z,92354.53
2023-04-15T03:49:25.110Z,92348.34
2023-04-15T03:49:58.673Z,92353.36
2023-04-15T03:50:32.278Z,92355.16
2023-04-15T03:51:06.158Z,92350.49
2023-04-15T03:51:39.889Z,92352.42
2023-04-15T03:52:13.442Z,92355.62
2023-04-15T03:52:47.894Z,92359.14
2023-04-15T03:53:22.494Z,92356.52
2023-04-15T03:53:56.383Z,92353.80
2023-04-15T03:54:29.873Z,92356.43
2023-04-15T03:55:03.750Z,92355.53
2023-04-15T03:55:37.372Z,92350.45
2023-04-15T03:56:11.166Z,92350.69
2023-04-15T03:56:47.407Z,92343.67
2023-04-15T03:57:21.079Z,92356.63
2023-04-15T03:57:54.861Z,92357.98
2023-04-15T03:58:28.441Z,92353.31
2023-04-15T03:59:02.520Z,92357.23
2023-04-15T03:59:36.696Z,92357.04
2023-04-15T04:00:24.426Z,92359.70
2023-04-15T04:00:58.364Z,92355.59
2023-04-15T04:01:31.967Z,92361.37
2023-04-15T04:02:06.003Z,92351.29
2023-04-15T04:02:39.855Z,92355.84
2023-04-15T04:03:13.928Z,92360.55
2023-04-15T04:03:47.681Z,92362.66
2023-04-15T04:04:21.677Z,92354.09
2023-04-15T04:04:55.641Z,92356.80
2023-04-15T04:05:29.114Z,92359.91
2023-04-15T04:06:03.010Z,92359.58
2023-04-15T04:06:36.856Z,92350.21
2023-04-15T04:07:18.537Z,92352.83
2023-04-15T04:07:52.375Z,92354.13
2023-04-15T04:08:27.960Z,92351.38
2023-04-15T04:09:02.185Z,92356.27
2023-04-15T04:09:36.649Z,92353.59
2023-04-15T04:10:10.672Z,92349.35
2023-04-15T04:10:44.310Z,92358.54
2023-04-15T04:11:17.947Z,92357.17
2023-04-15T04:11:51.585Z,92357.36
2023-04-15T04:12:25.112Z,92360.36
2023-04-15T04:12:58.627Z,92364.23
2023-04-15T04:13:32.181Z,92366.16
2023-04-15T04:14:05.926Z,92366.94
2023-04-15T04:14:39.593Z,92362.88
2023-04-15T04:15:13.470Z,92369.57
2023-04-15T04:15:47.100Z,92366.20
2023-04-15T04:16:20.820Z,92364.34
2023-04-15T04:16:54.456Z,92368.75
2023-04-15T04:17:28.033Z,92367.50
2023-04-15T04:18:01.947Z,92367.44
2023-04-15T04:18:35.635Z,92367.33
2023-04-15T04:19:09.169Z,92366.21
2023-04-15T04:19:42.855Z,92368.04
2023-04-15T04:20:17.017Z,92368.28
2023-04-15T04:20:51.164Z,92367.77
2023-04-15T04:21:24.879Z,92363.55
2023-04-15T04:21:58.376Z,92369.19
2023-04-15T04:22:32.222Z,92369.82
2023-04-15T04:23:05.943Z,92366.79
2023-04-15T04:23:39.924Z,92370.88
2023-04-15T04:24:13.602Z,92371.50
2023-04-15T04:24:47.277Z,92357.92
2023-04-15T04:25:20.861Z,92368.65
2023-04-15T04:25:54.608Z,92357.84
2023-04-15T04:26:28.172Z,92374.24
2023-04-15T04:27:02.363Z,92374.56
2023-04-15T04:27:36.794Z,92373.99
2023-04-15T04:28:10.528Z,92356.73
2023-04-15T04:28:44.246Z,92375.61
2023-04-15T04:29:18.069Z,92374.31
2023-04-15T04:29:51.860Z,92374.08
2023-04-15T04:30:25.632Z,92379.04
2023-04-15T04:30:59.644Z,92372.27
2023-04-15T04:31:33.665Z,92373.09
2023-04-15T04:32:07.599Z,92379.13
2023-04-15T04:32:41.274Z,92376.83
2023-04-15T04:33:15.046Z,92376.98
2023-04-15T04:33:48.652Z,92380.14
2023-04-15T04:34:22.232Z,92376.92
2023-04-15T04:34:56.242Z,92379.09
2023-04-15T04:35:29.844Z,92367.61
2023-04-15T04:36:06.806Z,92381.30
2023-04-15T04:36:42.664Z,92380.03
2023-04-15T04:37:16.577Z,92381.77
2023-04-15T04:37:51.082Z,92385.48
2023-04-15T04:38:26.557Z,92386.23
2023-04-15T04:39:01.768Z,92390.02
2023-04-15T04:39:36.238Z,92388.95
2023-04-15T04:40:11.144Z,92387.36
2023-04-15T04:40:44.948Z,92388.48
2023-04-15T04:41:19.025Z,92373.33
2023-04-15T04:41:52.833Z,92392.45
2023-04-15T04:42:26.679Z,92389.11
2023-04-15T04:43:00.823Z,92396.08
2023-04-15T04:43:34.803Z,92392.65
2023-04-15T04:44:10.138Z,92395.60
2023-04-15T04:44:43.909Z,92396.72
2023-04-15T04:45:17.667Z,92395.81
2023-04-15T04:45:51.529Z,92393.55
2023-04-15T04:46:25.139Z,92398.29
2023-04-15T04:46:58.742Z,92398.60
2023-04-15T04:47:32.408Z,92384.88
2023-04-15T04:48:07.492Z,92400.00
2023-04-15T04:48:41.329Z,92397.04
2023-04-15T04:49:14.992Z,92398.31
2023-04-15T04:49:48.522Z,92400.94
2023-04-15T04:50:22.269Z,92399.93
2023-04-15T04:50:56.417Z,92400.79
2023-04-15T04:51:40.294Z,92396.70
2023-04-15T04:52:14.167Z,92403.26
2023-04-15T04:52:47.768Z,92400.64
2023-04-15T04:53:21.811Z,92393.81
2023-04-15T04:53:58.290Z,92404.50
2023-04-15T04:54:31.992Z,92410.73
2023-04-15T04:55:06.111Z,92408.25
2023-04-15T04:55:39.619Z,92410.48
2023-04-15T04:56:13.212Z,92409.98
2023-04-15T04:56:47.451Z,92403.61
2023-04-15T04:57:21.174Z,92411.73
2023-04-15T04:57:54.900Z,92417.39
2023-04-15T04:58:28.640Z,92414.55
2023-04-15T04:59:02.536Z,92413.91
2023-04-15T04:59:36.778Z,92422.06
2023-04-15T05:00:10.930Z,92416.34
2023-04-15T05:00:44.510Z,92417.13
2023-04-15T05:01:18.289Z,92411.58
2023-04-15T05:01:52.265Z,92411.17
2023-04-15T05:02:27.412Z,92416.67
2023-04-15T05:03:03.346Z,92417.96
2023-04-15T05:03:37.213Z,92421.69
2023-04-15T05:04:11.271Z,92416.16
2023-04-15T05:04:45.301Z,92423.14
2023-04-15T05:05:21.633Z,92423.21
2023-04-15T05:05:55.431Z,92422.00
2023-04-15T05:06:30.863Z,92422.80
2023-04-15T05:07:04.639Z,92400.19
2023-04-15T05:07:39.935Z,92420.02
2023-04-15T05:08:13.643Z,92411.42
2023-04-15T05:08:47.460Z,92422.83
2023-04-15T05:09:21.158Z,92407.05
2023-04-15T05:10:53.304Z,92416.73
2023-04-15T05:11:05.986Z,92414.52
2023-04-15T05:11:39.892Z,92420.20
2023-04-15T05:12:15.294Z,92417.55
2023-04-15T05:12:49.015Z,92422.15
2023-04-15T05:13:25.365Z,92424.11
2023-04-15T05:14:00.025Z,92419.10
2023-04-15T05:14:33.701Z,92408.16
2023-04-15T05:15:08.043Z,92417.59
2023-04-15T05:15:43.571Z,92420.63
2023-04-15T05:16:20.360Z,92417.89
2023-04-15T05:16:54.022Z,92422.00
2023-04-15T05:17:27.781Z,92401.86
2023-04-15T05:18:01.747Z,92422.68
2023-04-15T05:18:35.640Z,92419.56
2023-04-15T05:19:11.089Z,92421.30
2023-04-15T05:19:44.651Z,92427.83
2023-04-15T05:20:18.412Z,92426.48
2023-04-15T05:20:51.987Z,92426.96
2023-04-15T05:21:26.415Z,92426.02
2023-04-15T05:22:03.544Z,92426.13
2023-04-15T05:22:52.234Z,92426.26
2023-04-15T05:23:26.476Z,92417.66
2023-04-15T05:24:00.330Z,92423.38
2023-04-15T05:24:34.171Z,92422.90
2023-04-15T05:25:08.899Z,92407.87
2023-04-15T05:25:47.184Z,92422.33
2023-04-15T05:26:21.944Z,92422.39
2023-04-15T05:26:56.513Z,92421.50
2023-04-15T05:27:30.123Z,92414.06
2023-04-15T05:28:03.801Z,92416.91
2023-04-15T05:28:37.404Z,92426.44
2023-04-15T05:29:10.951Z,92427.45
2023-04-15T05:29:44.588Z,92427.75
2023-04-15T05:30:18.238Z,92421.68
2023-04-15T05:30:52.222Z,92427.30
2023-04-15T05:31:26.176Z,92427.30
2023-04-15T05:31:59.761Z,92423.95
2023-04-15T05:32:33.322Z,92430.02
2023-04-15T05:33:06.905Z,92428.31
2023-04-15T05:33:42.777Z,92427.11
2023-04-15T05:34:17.332Z,92424.06
2023-04-15T05:34:51.197Z,92430.61
2023-04-15T05:35:24.896Z,92432.11
2023-04-15T05:35:58.467Z,92418.73
2023-04-15T05:36:32.093Z,92431.53
2023-04-15T05:37:05.623Z,92432.70
2023-04-15T05:37:39.260Z,92432.08
2023-04-15T05:38:12.879Z,92430.14
2023-04-15T05:38:46.850Z,92420.40
2023-04-15T05:39:20.427Z,92433.89
2023-04-15T05:39:53.986Z,92429.88
2023-04-15T05:40:27.640Z,92432.09
2023-04-15T05:41:01.702Z,92429.36
2023-04-15T05:41:35.242Z,92432.98
2023-04-15T05:42:08.834Z,92433.16
2023-04-15T05:42:42.421Z,92437.52
2023-04-15T05:43:15.910Z,92440.65
2023-04-15T05:43:49.359Z,92440.86
2023-04-15T05:44:22.910Z,92441.70
2023-04-15T05:44:56.670Z,92442.61
2023-04-15T05:45:30.353Z,92440.67
2023-04-15T05:46:16.192Z,92440.18
2023-04-15T05:46:49.705Z,92440.51
2023-04-15T05:48:57.688Z,92441.17
2023-04-15T05:49:31.301Z,92441.42
2023-04-15T05:50:05.643Z,92445.55
2023-04-15T05:50:42.438Z,92440.14
2023-04-15T05:51:16.315Z,92442.91
2023-04-15T05:51:50.236Z,92440.36
2023-04-15T05:52:23.798Z,92443.91
2023-04-15T05:52:57.341Z,92443.63
2023-04-15T05:53:31.111Z,92434.97
2023-04-15T05:54:04.892Z,92441.25
2023-04-15T05:54:39.034Z,92451.70
2023-04-15T05:55:12.772Z,92446.45
2023-04-15T05:55:46.395Z,92440.85
2023-04-15T05:56:20.966Z,92450.47
2023-04-15T05:56:55.114Z,92449.09
2023-04-15T05:57:28.814Z,92450.17
2023-04-15T05:58:02.516Z,92447.09
2023-04-15T05:58:36.682Z,92445.83
2023-04-15T05:59:10.453Z,92445.59
2023-04-15T05:59:45.026Z,92449.41
2023-04-15T06:00:18.808Z,92447.36
2023-04-15T06:00:52.493Z,92432.19
2023-04-15T06:01:26.359Z,92452.14
2023-04-15T06:02:00.114Z,92449.40
2023-04-15T06:02:34.173Z,92451.48
2023-04-15T06:03:08.364Z,92453.39
2023-04-15T06:03:42.214Z,92449.79
2023-04-15T06:04:16.668Z,92449.50
2023-04-15T06:04:50.446Z,92449.59
2023-04-15T06:05:24.415Z,92448.61
2023-04-15T06:05:57.948Z,92450.85
2023-04-15T06:06:32.783Z,92450.00
2023-04-15T06:07:06.629Z,92450.54
2023-04-15T06:07:40.515Z,92451.15
2023-04-15T06:08:14.527Z,92455.40
2023-04-15T06:08:48.105Z,92458.33
2023-04-15T06:09:21.795Z,92454.13
2023-04-15T06:09:55.535Z,92456.44
2023-04-15T06:10:29.529Z,92452.66
2023-04-15T06:11:03.383Z,92452.55
2023-04-15T06:11:37.281Z,92454.85
2023-04-15T06:12:12.502Z,92455.00
2023-04-15T06:12:46.603Z,92450.28
2023-04-15T06:13:20.266Z,92449.77
2023-04-15T06:13:54.024Z,92456.31
2023-04-15T06:14:27.838Z,92460.10
2023-04-15T06:15:01.815Z,92457.80
2023-04-15T06:15:35.663Z,92456.56
2023-04-15T06:16:11.586Z,92454.01
2023-04-15T06:16:45.306Z,92455.68
2023-04-15T06:17:19.692Z,92462.13
2023-04-15T06:17:53.506Z,92455.64
2023-04-15T06:18:26.958Z,92456.35
2023-04-15T06:19:00.818Z,92457.61
2023-04-15T06:19:35.308Z,92457.92
2023-04-15T06:20:09.328Z,92454.58
2023-04-15T06:20:43.170Z,92454.60
2023-04-15T06:21:16.896Z,92458.71
2023-04-15T06:21:52.951Z,92454.82
2023-04-15T06:22:26.737Z,92455.17
2023-04-15T06:23:00.364Z,92454.41
2023-04-15T06:23:37.082Z,92456.73
2023-04-15T06:24:11.757Z,92459.02
2023-04-15T06:24:45.698Z,92456.09
2023-04-15T06:25:19.399Z,92459.60
2023-04-15T06:25:53.198Z,92461.73
2023-04-15T06:26:26.856Z,92454.37
2023-04-15T06:27:00.624Z,92454.67
2023-04-15T06:27:34.592Z,92447.21
2023-04-15T06:28:08.397Z,92454.55
2023-04-15T06:28:42.121Z,92444.05
2023-04-15T06:29:17.830Z,92458.33
2023-04-15T06:29:51.778Z,92461.88
2023-04-15T06:30:25.563Z,92455.53
2023-04-15T06:30:59.581Z,92450.63
2023-04-15T06:31:33.431Z,92454.97
2023-04-15T06:32:07.410Z,92456.91
2023-04-15T06:32:41.348Z,92460.63
2023-04-15T06:33:15.315Z,92459.34
2023-04-15T06:33:49.344Z,92461.50
2023-04-15T06:34:23.124Z,92459.18
2023-04-15T06:34:57.095Z,92456.95
2023-04-15T06:35:30.764Z,92458.68
2023-04-15T06:36:04.560Z,92461.52
2023-04-15T06:36:38.300Z,92460.85
2023-04-15T06:37:16.342Z,92452.99
2023-04-15T06:37:49.841Z,92461.67
2023-04-15T06:38:26.685Z,92465.02
2023-04-15T06:39:00.508Z,92463.71
2023-04-15T06:39:36.451Z,92462.89
2023-04-15T06:40:10.581Z,92469.11
2023-04-15T06:40:44.253Z,92465.95
2023-04-15T06:41:18.433Z,92468.98
2023-04-15T06:41:51.883Z,92470.71
2023-04-15T06:42:27.849Z,92473.65
2023-04-15T06:43:01.341Z,92472.77
2023-04-15T06:43:34.993Z,92471.66
2023-04-15T06:44:08.628Z,92477.02
2023-04-15T06:44:42.388Z,92474.83
2023-04-15T06:45:16.175Z,92470.92
2023-04-15T06:45:49.767Z,92474.33
2023-04-15T06:46:23.361Z,92473.66
2023-04-15T06:46:56.884Z,92479.00
2023-04-15T06:47:30.364Z,92477.84
2023-04-15T06:48:04.146Z,92480.58
2023-04-15T06:48:37.638Z,92477.45
2023-04-15T06:49:11.685Z,92477.71
2023-04-15T06:49:45.250Z,92473.89
2023-04-15T06:50:18.862Z,92481.56
2023-04-15T06:50:52.610Z,92484.34
2023-04-15T06:51:26.824Z,92485.05
2023-04-15T06:52:00.896Z,92483.30
2023-04-15T06:52:34.567Z,92483.05
2023-04-15T06:53:08.030Z,92474.59
2023-04-15T06:53:42.874Z,92484.52
2023-04-15T06:54:16.488Z,92486.32
2023-04-15T06:54:49.908Z,92485.61
2023-04-15T06:55:23.726Z,92486.69
2023-04-15T06:55:57.124Z,92485.89
2023-04-15T06:56:30.792Z,92490.72
2023-04-15T06:57:04.561Z,92490.23